NZ-0014 weather

Big Bay Beach strip
Big Bay, West Coast Region, New Zealand

Public forecast

Using degrees Celsius for public forecast. Weather courtesy of forecast.io.

METAR (pilot weather report)

Closest report is Christchurch International Airport, 197.1 nm (365.1 km) ENE. Retrieved 2019/06/17 11:30 UTC (0 seconds ago):

NZCH 171130Z AUTO 23010KT 9999 SCT050/// BKN080/// 07/01 Q1016 NOSIG

TAF (pilot weather forecast)

Forecast is more than 12 hours old.

Closest forecast is Queenstown International Airport, 51.1 nm (94.6 km) SSE. Retrieved 2019/06/16 18:12 UTC (17 hours ago):

TAF NZQN 161703Z 1618/1712 23012KT 9999 FEW030 SCT050 FM170000 22018G30KT 9999 -SHRASN SCT030 BKN060 TEMPO 1700/1706 7000 SHRASN